createdAt,value
2018-09-27T00:01:33.329Z,99.90
2018-09-27T00:04:08.175Z,99.90
2018-09-27T00:06:42.249Z,99.90
2018-09-27T00:09:16.907Z,99.90
2018-09-27T00:11:51.019Z,99.90
2018-09-27T00:14:25.301Z,99.90
2018-09-27T00:16:59.279Z,99.90
2018-09-27T00:19:33.512Z,99.90
2018-09-27T00:22:07.529Z,99.90
2018-09-27T00:24:41.594Z,99.90
2018-09-27T00:27:15.611Z,99.90
2018-09-27T00:29:49.697Z,99.90
2018-09-27T00:32:23.794Z,99.90
2018-09-27T00:34:57.959Z,99.90
2018-09-27T00:37:32.669Z,99.90
2018-09-27T00:40:06.733Z,99.90
2018-09-27T00:42:40.817Z,99.90
2018-09-27T00:45:14.765Z,99.90
2018-09-27T00:47:48.822Z,99.90
2018-09-27T00:50:22.930Z,99.90
2018-09-27T00:52:57.046Z,99.90
2018-09-27T00:55:31.279Z,99.90
2018-09-27T00:58:05.247Z,99.90
2018-09-27T01:00:39.294Z,99.90
2018-09-27T01:03:14.225Z,99.90
2018-09-27T01:05:48.286Z,99.90
2018-09-27T01:08:23.041Z,99.90
2018-09-27T01:10:57.167Z,99.90
2018-09-27T01:13:31.994Z,99.90
2018-09-27T01:16:06.078Z,99.90
2018-09-27T01:18:40.002Z,99.90
2018-09-27T01:21:14.133Z,99.90
2018-09-27T01:23:48.145Z,99.90
2018-09-27T01:26:22.293Z,99.90
2018-09-27T01:28:56.501Z,99.90
2018-09-27T01:31:30.606Z,99.90
2018-09-27T01:34:04.772Z,99.90
2018-09-27T01:36:38.935Z,99.90
2018-09-27T01:39:13.038Z,99.90
2018-09-27T01:41:47.174Z,99.90
2018-09-27T01:44:21.270Z,99.90
2018-09-27T01:46:56.126Z,99.90
2018-09-27T01:49:30.818Z,99.90
2018-09-27T01:52:04.960Z,99.90
2018-09-27T01:54:39.010Z,99.90
2018-09-27T01:57:13.141Z,99.90
2018-09-27T01:59:47.085Z,99.90
2018-09-27T02:02:21.183Z,99.90
2018-09-27T02:04:55.997Z,99.90
2018-09-27T02:07:30.058Z,99.90
2018-09-27T02:10:04.134Z,99.90
2018-09-27T02:12:38.242Z,99.90
2018-09-27T02:15:12.350Z,99.90
2018-09-27T02:17:46.471Z,99.90
2018-09-27T02:20:20.410Z,99.90
2018-09-27T02:22:54.414Z,99.90
2018-09-27T02:25:28.478Z,99.90
2018-09-27T02:28:02.550Z,99.90
2018-09-27T02:30:36.682Z,99.90
2018-09-27T02:33:10.633Z,99.90
2018-09-27T02:35:44.746Z,99.90
2018-09-27T02:38:18.883Z,99.90
2018-09-27T02:40:53.094Z,99.90
2018-09-27T02:43:27.209Z,99.90
2018-09-27T02:46:01.328Z,99.90
2018-09-27T02:48:35.393Z,99.90
2018-09-27T02:51:09.439Z,99.90
2018-09-27T02:53:43.426Z,99.90
2018-09-27T02:56:17.554Z,99.90
2018-09-27T02:58:51.580Z,99.90
2018-09-27T03:01:25.645Z,99.90
2018-09-27T03:04:00.481Z,99.90
2018-09-27T03:06:34.384Z,99.90
2018-09-27T03:09:08.526Z,99.90
2018-09-27T03:11:42.553Z,99.90
2018-09-27T03:14:16.637Z,99.90
2018-09-27T03:16:50.653Z,99.90
2018-09-27T03:19:24.836Z,99.90
2018-09-27T03:21:58.822Z,99.90
2018-09-27T03:24:32.848Z,99.90
2018-09-27T03:27:06.921Z,99.90
2018-09-27T03:29:41.055Z,99.90
2018-09-27T03:32:15.172Z,99.90
2018-09-27T03:34:50.011Z,99.90
2018-09-27T03:37:24.111Z,99.90
2018-09-27T03:39:58.241Z,99.90
2018-09-27T03:42:32.395Z,99.90
2018-09-27T03:45:06.494Z,99.90
2018-09-27T03:47:40.683Z,99.90
2018-09-27T03:50:14.773Z,99.90
2018-09-27T03:52:48.720Z,99.90
2018-09-27T03:55:58.467Z,99.90
2018-09-27T03:58:32.410Z,99.90
2018-09-27T04:01:06.654Z,99.90
2018-09-27T04:03:40.690Z,99.90
2018-09-27T04:06:14.800Z,99.90
2018-09-27T04:08:48.987Z,99.90
2018-09-27T04:11:23.113Z,99.90
2018-09-27T04:13:57.177Z,99.90
2018-09-27T04:16:31.241Z,99.90
2018-09-27T04:19:05.385Z,99.90
2018-09-27T04:21:39.492Z,99.90
2018-09-27T04:24:13.490Z,99.90
2018-09-27T04:26:48.278Z,99.90
2018-09-27T04:29:22.273Z,99.90
2018-09-27T04:31:56.431Z,99.90
2018-09-27T04:34:46.206Z,99.90
2018-09-27T04:37:20.289Z,99.90
2018-09-27T04:39:54.336Z,99.90
2018-09-27T04:42:28.447Z,99.90
2018-09-27T04:45:02.434Z,99.90
2018-09-27T04:47:36.589Z,99.90
2018-09-27T04:50:10.814Z,99.90
2018-09-27T04:52:44.894Z,99.90
2018-09-27T04:55:32.857Z,99.90
2018-09-27T04:58:06.967Z,99.90
2018-09-27T05:00:41.865Z,99.90
2018-09-27T05:03:15.779Z,99.90
2018-09-27T05:05:49.895Z,99.90
2018-09-27T05:08:24.007Z,99.90
2018-09-27T05:10:58.463Z,99.90
2018-09-27T05:13:32.386Z,99.90
2018-09-27T05:16:06.643Z,99.90
2018-09-27T05:18:40.474Z,99.90
2018-09-27T05:21:15.239Z,99.90
2018-09-27T05:23:50.071Z,99.90
2018-09-27T05:26:24.091Z,99.90
2018-09-27T05:28:58.342Z,99.90
2018-09-27T05:31:32.361Z,99.90
2018-09-27T05:34:07.174Z,99.90
2018-09-27T05:36:41.143Z,99.90
2018-09-27T05:39:15.191Z,99.90
2018-09-27T05:41:49.131Z,99.90
2018-09-27T05:44:23.267Z,99.90
2018-09-27T05:46:57.362Z,99.90
2018-09-27T05:49:31.359Z,99.90
2018-09-27T05:52:05.518Z,99.90
2018-09-27T05:54:39.622Z,99.90
2018-09-27T05:57:13.768Z,99.90
2018-09-27T05:59:47.960Z,99.90
2018-09-27T06:02:22.791Z,99.90
2018-09-27T06:04:57.618Z,99.90
2018-09-27T06:07:31.689Z,99.90
2018-09-27T06:10:05.793Z,99.90
2018-09-27T06:12:40.621Z,99.90
2018-09-27T06:15:14.633Z,99.90
2018-09-27T06:17:48.645Z,99.90
2018-09-27T06:20:30.753Z,99.90
2018-09-27T06:23:04.882Z,99.90
2018-09-27T06:25:39.117Z,99.90
2018-09-27T06:28:14.022Z,99.90
2018-09-27T06:30:48.178Z,99.90
2018-09-27T06:33:22.302Z,99.90
2018-09-27T06:35:58.312Z,99.90
2018-09-27T06:38:34.759Z,99.90
2018-09-27T06:41:12.768Z,99.90
2018-09-27T06:43:50.627Z,99.90
2018-09-27T06:46:28.016Z,99.90
2018-09-27T06:49:07.325Z,99.90
2018-09-27T06:51:43.474Z,99.90
2018-09-27T06:54:20.498Z,99.90
2018-09-27T06:56:58.221Z,99.90
2018-09-27T07:00:06.007Z,99.90
2018-09-27T07:13:37.027Z,99.90
2018-09-27T07:16:11.116Z,99.90
2018-09-27T07:18:45.882Z,99.90
2018-09-27T07:21:20.696Z,99.90
2018-09-27T07:23:54.762Z,99.90
2018-09-27T07:26:28.969Z,99.90
2018-09-27T07:29:02.962Z,99.90
2018-09-27T07:31:37.034Z,99.90
2018-09-27T07:34:11.179Z,99.90
2018-09-27T07:36:45.385Z,99.90
2018-09-27T07:39:19.274Z,99.90
2018-09-27T07:41:53.358Z,99.90
2018-09-27T07:44:27.385Z,99.90
2018-09-27T07:47:01.990Z,99.90
2018-09-27T07:49:35.950Z,99.90
2018-09-27T07:52:10.079Z,99.90
2018-09-27T07:54:44.235Z,99.90
2018-09-27T07:57:19.083Z,99.90
2018-09-27T07:59:53.199Z,99.90
2018-09-27T08:05:08.398Z,99.90
2018-09-27T08:07:42.530Z,99.90
2018-09-27T08:10:16.585Z,99.90
2018-09-27T08:12:53.992Z,99.90
2018-09-27T08:15:45.937Z,99.90
2018-09-27T08:18:20.771Z,99.90
2018-09-27T08:20:54.939Z,99.90
2018-09-27T08:23:29.691Z,99.90
2018-09-27T08:26:03.843Z,99.90
2018-09-27T08:28:37.975Z,99.90
2018-09-27T08:31:12.181Z,99.90
2018-09-27T08:33:46.323Z,99.90
2018-09-27T08:36:20.317Z,99.90
2018-09-27T08:38:54.471Z,99.90
2018-09-27T08:41:28.490Z,99.90
2018-09-27T08:44:02.541Z,98.30
2018-09-27T08:46:37.378Z,96.30
2018-09-27T08:49:11.450Z,96.10
2018-09-27T08:51:45.438Z,95.70
2018-09-27T08:54:21.262Z,93.30
2018-09-27T08:56:55.373Z,93.10
2018-09-27T08:59:29.485Z,92.10
2018-09-27T09:02:04.513Z,91.50
2018-09-27T09:04:38.502Z,91.40
2018-09-27T09:07:12.425Z,90.10
2018-09-27T09:09:46.444Z,88.60
2018-09-27T09:12:20.585Z,88.10
2018-09-27T09:14:54.725Z,88.40
2018-09-27T09:17:28.779Z,85.80
2018-09-27T09:20:03.570Z,83.90
2018-09-27T09:22:38.334Z,83.40
2018-09-27T09:25:12.335Z,83.40
2018-09-27T09:27:46.484Z,82.90
2018-09-27T09:30:20.671Z,82.40
2018-09-27T09:32:55.439Z,83.10
2018-09-27T09:35:35.409Z,83.10
2018-09-27T09:38:09.448Z,81.60
2018-09-27T09:40:43.422Z,82.90
2018-09-27T09:43:17.595Z,82.80
2018-09-27T09:45:51.664Z,86.90
2018-09-27T09:48:25.851Z,87.30
2018-09-27T09:50:59.840Z,84.20
2018-09-27T09:53:33.845Z,84.60
2018-09-27T09:56:08.776Z,89.00
2018-09-27T09:58:42.922Z,89.00
2018-09-27T10:01:17.217Z,88.10
2018-09-27T10:03:51.654Z,86.10
2018-09-27T10:06:26.472Z,86.10
2018-09-27T10:09:00.816Z,86.00
2018-09-27T10:11:34.649Z,85.50
2018-09-27T10:14:08.688Z,84.20
2018-09-27T10:16:42.814Z,84.80
2018-09-27T10:19:16.916Z,82.10
2018-09-27T10:21:51.163Z,84.30
2018-09-27T10:24:25.420Z,83.50
2018-09-27T10:26:59.645Z,86.50
2018-09-27T10:29:33.779Z,84.50
2018-09-27T10:32:07.786Z,78.50
2018-09-27T10:34:42.009Z,78.80
2018-09-27T10:37:16.195Z,74.80
2018-09-27T10:39:50.370Z,74.90
2018-09-27T10:42:24.351Z,74.70
2018-09-27T10:44:58.592Z,74.80
2018-09-27T10:47:33.346Z,76.40
2018-09-27T10:50:07.570Z,76.40
2018-09-27T10:52:41.638Z,77.10
2018-09-27T10:55:15.655Z,76.50
2018-09-27T10:57:50.478Z,70.90
2018-09-27T11:00:24.743Z,70.90
2018-09-27T11:02:58.949Z,74.50
2018-09-27T11:05:33.314Z,75.30
2018-09-27T11:08:08.315Z,71.60
2018-09-27T11:10:43.261Z,69.20
2018-09-27T11:13:26.635Z,69.10
2018-09-27T11:16:11.482Z,69.50
2018-09-27T11:18:50.898Z,68.80
2018-09-27T11:21:30.707Z,69.70
2018-09-27T11:24:10.394Z,68.70
2018-09-27T11:27:00.747Z,69.40
2018-09-27T11:29:35.737Z,69.10
2018-09-27T11:32:13.337Z,64.40
2018-09-27T11:34:52.576Z,64.40
2018-09-27T11:37:34.818Z,65.00
2018-09-27T11:43:36.493Z,63.90
2018-09-27T11:46:11.085Z,63.10
2018-09-27T11:49:17.289Z,63.40
2018-09-27T12:05:25.032Z,60.50
2018-09-27T12:50:36.240Z,62.20
2018-09-27T12:53:10.279Z,57.50
2018-09-27T12:55:45.145Z,55.80
2018-09-27T12:58:19.128Z,55.80
2018-09-27T13:00:54.016Z,55.70
2018-09-27T13:03:28.111Z,55.70
2018-09-27T13:06:02.138Z,56.80
2018-09-27T13:08:36.250Z,54.60
2018-09-27T13:11:10.087Z,56.90
2018-09-27T13:13:44.245Z,56.40
2018-09-27T13:16:18.255Z,54.90
2018-09-27T13:18:52.270Z,53.30
2018-09-27T13:21:26.402Z,52.90
2018-09-27T13:24:00.610Z,54.20
2018-09-27T13:26:34.601Z,53.80
2018-09-27T13:29:09.536Z,52.80
2018-09-27T13:31:43.526Z,52.80
2018-09-27T13:34:17.563Z,54.10
2018-09-27T13:36:51.757Z,52.50
2018-09-27T13:39:25.732Z,54.90
2018-09-27T13:41:59.990Z,53.30
2018-09-27T13:44:34.067Z,51.60
2018-09-27T13:47:08.284Z,50.00
2018-09-27T13:49:42.466Z,49.10
2018-09-27T13:52:16.726Z,50.10
2018-09-27T13:54:50.877Z,49.30
2018-09-27T13:57:24.976Z,49.30
2018-09-27T13:59:59.777Z,48.90
2018-09-27T14:02:33.745Z,48.90
2018-09-27T14:05:07.909Z,48.40
2018-09-27T14:07:42.699Z,45.90
2018-09-27T14:10:16.810Z,46.00
2018-09-27T14:12:50.917Z,47.20
2018-09-27T14:15:24.908Z,48.10
2018-09-27T14:17:58.979Z,49.10
2018-09-27T14:20:33.873Z,45.50
2018-09-27T14:23:07.826Z,45.50
2018-09-27T14:25:41.917Z,44.30
2018-09-27T14:28:16.086Z,47.20
2018-09-27T14:31:14.570Z,45.90
2018-09-27T14:33:48.606Z,43.50
2018-09-27T14:36:22.650Z,45.10
2018-09-27T14:38:56.727Z,43.30
2018-09-27T14:41:31.459Z,37.90
2018-09-27T14:44:05.546Z,37.80
2018-09-27T14:46:39.503Z,37.10
2018-09-27T14:49:13.603Z,36.50
2018-09-27T14:51:47.561Z,36.90
2018-09-27T14:54:22.437Z,35.30
2018-09-27T14:56:56.430Z,35.30
2018-09-27T14:59:30.367Z,34.10
2018-09-27T15:02:04.494Z,33.60
2018-09-27T15:04:39.410Z,32.70
2018-09-27T15:07:14.227Z,33.40
2018-09-27T15:09:48.471Z,33.30
2018-09-27T15:12:22.375Z,32.10
2018-09-27T15:14:56.435Z,33.10
2018-09-27T15:17:30.531Z,32.70
2018-09-27T15:20:04.639Z,33.30
2018-09-27T15:22:38.875Z,34.60
2018-09-27T15:25:13.136Z,34.50
2018-09-27T15:27:47.277Z,34.60
2018-09-27T15:30:21.262Z,35.40
2018-09-27T15:32:55.278Z,36.00
2018-09-27T15:35:29.189Z,36.30
2018-09-27T15:38:03.495Z,36.60
2018-09-27T15:40:37.486Z,36.60
2018-09-27T15:43:11.621Z,36.80
2018-09-27T15:45:46.616Z,37.40
2018-09-27T15:48:20.667Z,37.20
2018-09-27T15:50:54.710Z,37.70
2018-09-27T15:53:29.605Z,38.70
2018-09-27T15:56:03.796Z,38.60
2018-09-27T15:58:39.815Z,38.10
2018-09-27T16:01:13.810Z,38.60
2018-09-27T16:03:49.351Z,38.40
2018-09-27T16:06:23.435Z,37.90
2018-09-27T16:08:58.753Z,38.40
2018-09-27T16:11:33.555Z,42.00
2018-09-27T16:14:07.657Z,41.90
